createdAt,value
2023-06-19T00:02:25.508Z,21.17
2023-06-19T00:05:17.600Z,21.21
2023-06-19T00:08:10.471Z,21.13
2023-06-19T00:11:02.500Z,21.19
2023-06-19T00:13:47.396Z,21.26
2023-06-19T00:16:39.613Z,21.22
2023-06-19T00:19:24.616Z,21.14
2023-06-19T00:22:16.479Z,21.16
2023-06-19T00:25:01.637Z,21.12
2023-06-19T00:27:54.498Z,21.01
2023-06-19T00:30:39.332Z,21.02
2023-06-19T00:33:30.481Z,21.05
2023-06-19T00:36:17.193Z,20.90
2023-06-19T00:39:08.494Z,20.92
2023-06-19T00:41:53.949Z,20.94
2023-06-19T00:44:46.524Z,20.99
2023-06-19T00:47:31.500Z,21.06
2023-06-19T00:50:22.773Z,21.09
2023-06-19T00:53:09.440Z,21.13
2023-06-19T00:56:03.509Z,21.13
2023-06-19T00:58:48.526Z,21.08
2023-06-19T01:01:40.540Z,20.97
2023-06-19T01:04:31.781Z,21.15
2023-06-19T01:07:26.499Z,21.18
2023-06-19T01:10:15.964Z,21.15
2023-06-19T01:13:14.520Z,21.18
2023-06-19T01:16:00.812Z,21.14
2023-06-19T01:18:53.521Z,20.92
2023-06-19T01:21:38.644Z,20.83
2023-06-19T01:24:30.569Z,20.81
2023-06-19T01:27:15.382Z,20.87
2023-06-19T01:30:08.540Z,20.95
2023-06-19T01:33:11.619Z,21.01
2023-06-19T01:35:58.628Z,21.01
2023-06-19T01:38:52.518Z,21.02
2023-06-19T01:41:39.304Z,21.06
2023-06-19T01:44:31.554Z,21.09
2023-06-19T01:47:20.774Z,21.09
2023-06-19T01:50:13.566Z,21.06
2023-06-19T01:52:58.661Z,21.06
2023-06-19T01:55:50.542Z,21.07
2023-06-19T01:58:35.724Z,21.12
2023-06-19T02:01:27.523Z,21.14
2023-06-19T02:04:18.564Z,21.12
2023-06-19T02:07:17.544Z,21.02
2023-06-19T02:10:09.567Z,21.04
2023-06-19T02:13:01.535Z,21.03
2023-06-19T02:15:46.452Z,21.04
2023-06-19T02:18:38.529Z,21.07
2023-06-19T02:21:30.543Z,21.00
2023-06-19T02:24:21.576Z,21.08
2023-06-19T02:27:13.541Z,21.14
2023-06-19T02:30:04.531Z,21.03
2023-06-19T02:32:49.424Z,21.19
2023-06-19T02:35:41.552Z,21.14
2023-06-19T02:38:33.530Z,21.10
2023-06-19T02:41:19.473Z,21.08
2023-06-19T02:44:11.539Z,20.93
2023-06-19T02:47:02.558Z,20.98
2023-06-19T02:49:47.742Z,20.74
2023-06-19T02:52:39.595Z,20.62
2023-06-19T02:55:24.586Z,20.41
2023-06-19T02:58:15.533Z,20.46
2023-06-19T03:01:01.122Z,20.42
2023-06-19T03:03:53.565Z,20.39
2023-06-19T03:06:40.836Z,20.32
2023-06-19T03:09:32.558Z,20.21
2023-06-19T03:12:17.568Z,20.17
2023-06-19T03:15:09.569Z,20.09
2023-06-19T03:17:54.772Z,20.12
2023-06-19T03:20:46.571Z,20.12
2023-06-19T03:23:31.641Z,20.19
2023-06-19T03:26:22.608Z,20.27
2023-06-19T03:29:07.453Z,20.33
2023-06-19T03:31:58.594Z,20.34
2023-06-19T03:34:43.313Z,20.34
2023-06-19T03:37:34.584Z,20.38
2023-06-19T03:40:19.757Z,20.40
2023-06-19T03:43:11.573Z,20.38
2023-06-19T03:45:56.391Z,20.46
2023-06-19T03:48:48.580Z,20.53
2023-06-19T03:51:33.820Z,20.59
2023-06-19T03:54:25.576Z,20.59
2023-06-19T03:57:10.301Z,20.58
2023-06-19T04:00:01.600Z,20.57
2023-06-19T04:02:49.109Z,20.48
2023-06-19T04:05:49.597Z,20.43
2023-06-19T04:08:34.557Z,20.26
2023-06-19T04:11:26.590Z,20.14
2023-06-19T04:14:11.479Z,20.11
2023-06-19T04:17:02.593Z,20.07
2023-06-19T04:19:47.298Z,20.00
2023-06-19T04:22:38.564Z,19.97
2023-06-19T04:25:23.543Z,20.06
2023-06-19T04:28:14.583Z,20.02
2023-06-19T04:31:02.580Z,20.06
2023-06-19T04:33:54.574Z,19.94
2023-06-19T04:36:39.579Z,19.95
2023-06-19T04:39:31.588Z,20.06
2023-06-19T04:42:21.589Z,19.97
2023-06-19T04:45:14.591Z,20.01
2023-06-19T04:48:03.963Z,20.04
2023-06-19T04:50:55.589Z,20.12
2023-06-19T04:53:40.604Z,20.15
2023-06-19T04:56:31.614Z,20.15
2023-06-19T04:59:25.608Z,20.11
2023-06-19T05:02:11.486Z,20.15
2023-06-19T05:05:09.600Z,20.06
2023-06-19T05:08:01.685Z,20.00
2023-06-19T05:10:53.606Z,20.16
2023-06-19T05:13:38.790Z,20.23
2023-06-19T05:16:33.056Z,20.30
2023-06-19T05:19:19.995Z,20.36
2023-06-19T05:22:11.625Z,20.39
2023-06-19T05:25:03.612Z,20.49
2023-06-19T05:27:48.391Z,20.35
2023-06-19T05:30:39.631Z,20.63
2023-06-19T05:33:24.635Z,20.82
2023-06-19T05:36:16.635Z,20.94
2023-06-19T05:39:01.716Z,20.64
2023-06-19T05:41:53.635Z,20.76
2023-06-19T05:44:38.572Z,21.06
2023-06-19T05:47:32.682Z,21.34
2023-06-19T05:50:17.877Z,21.35
2023-06-19T05:53:09.624Z,21.66
2023-06-19T05:56:00.647Z,21.55
2023-06-19T05:58:51.613Z,21.63
2023-06-19T06:01:43.658Z,21.24
2023-06-19T06:04:41.652Z,21.23
2023-06-19T06:07:36.312Z,21.14
2023-06-19T06:10:29.633Z,21.27
2023-06-19T06:13:14.680Z,21.17
2023-06-19T06:16:06.633Z,21.32
2023-06-19T06:18:51.447Z,21.46
2023-06-19T06:21:42.648Z,21.50
2023-06-19T06:24:28.349Z,21.80
2023-06-19T06:27:20.646Z,22.00
2023-06-19T06:30:06.715Z,22.03
2023-06-19T06:32:58.667Z,22.40
2023-06-19T06:35:43.381Z,22.57
2023-06-19T06:38:34.644Z,22.59
2023-06-19T06:41:19.712Z,22.55
2023-06-19T06:44:12.625Z,22.19
2023-06-19T06:46:57.644Z,22.26
2023-06-19T06:49:48.686Z,22.28
2023-06-19T06:52:40.640Z,22.42
2023-06-19T06:55:31.654Z,22.86
2023-06-19T06:58:18.300Z,22.95
2023-06-19T07:01:09.822Z,23.18
2023-06-19T07:04:14.679Z,23.13
2023-06-19T07:07:06.666Z,23.08
2023-06-19T07:09:51.541Z,23.33
2023-06-19T07:12:43.674Z,23.47
2023-06-19T07:15:28.879Z,23.77
2023-06-19T07:18:20.670Z,23.69
2023-06-19T07:21:18.665Z,23.65
2023-06-19T07:24:10.675Z,23.98
2023-06-19T07:27:03.680Z,24.04
2023-06-19T07:29:49.011Z,23.85
2023-06-19T07:32:40.712Z,24.04
2023-06-19T07:35:25.786Z,24.06
2023-06-19T07:38:16.654Z,23.96
2023-06-19T07:41:01.840Z,24.28
2023-06-19T07:43:53.661Z,24.18
2023-06-19T07:46:44.670Z,24.34
2023-06-19T07:49:29.705Z,24.50
2023-06-19T07:52:21.670Z,25.06
2023-06-19T07:55:13.664Z,25.20
2023-06-19T07:58:05.660Z,23.83
2023-06-19T08:00:50.785Z,24.25
2023-06-19T08:03:42.735Z,25.60
2023-06-19T08:06:33.926Z,25.36
2023-06-19T08:09:25.660Z,24.94
2023-06-19T08:12:10.643Z,26.47
2023-06-19T08:15:01.673Z,25.07
2023-06-19T08:17:47.009Z,27.14
2023-06-19T08:20:38.728Z,28.11
2023-06-19T08:23:23.543Z,27.92
2023-06-19T08:26:15.684Z,28.47
2023-06-19T08:29:00.536Z,30.51
2023-06-19T08:31:51.708Z,28.02
2023-06-19T08:34:37.609Z,26.03
2023-06-19T08:37:28.728Z,25.15
2023-06-19T08:40:13.573Z,25.23
2023-06-19T08:43:05.681Z,25.44
2023-06-19T08:46:11.888Z,25.62
2023-06-19T08:48:57.146Z,25.72
2023-06-19T08:51:48.743Z,25.58
2023-06-19T08:54:39.699Z,29.64
2023-06-19T08:57:34.941Z,27.13
2023-06-19T09:00:34.715Z,26.84
2023-06-19T09:03:29.853Z,29.06
2023-06-19T09:06:24.808Z,27.34
2023-06-19T09:09:20.750Z,28.87
2023-06-19T09:12:14.705Z,28.08
2023-06-19T09:14:59.511Z,28.69
2023-06-19T09:17:51.760Z,28.37
2023-06-19T09:20:45.113Z,29.76
2023-06-19T09:23:36.721Z,31.00
2023-06-19T09:26:21.750Z,31.55
2023-06-19T09:29:26.726Z,30.33
2023-06-19T09:32:25.787Z,29.47
2023-06-19T09:35:17.740Z,29.23
2023-06-19T09:38:03.197Z,29.97
2023-06-19T09:40:55.708Z,31.18
2023-06-19T09:43:45.017Z,30.98
2023-06-19T09:46:40.768Z,30.88
2023-06-19T09:49:39.726Z,32.37
2023-06-19T09:52:25.320Z,30.89
2023-06-19T09:55:20.761Z,31.63
2023-06-19T09:58:06.778Z,32.32
2023-06-19T10:00:58.724Z,32.39
2023-06-19T10:03:44.260Z,32.74
2023-06-19T10:06:56.728Z,33.68
2023-06-19T10:09:41.985Z,32.54
2023-06-19T10:12:47.755Z,32.63
2023-06-19T10:15:32.707Z,33.65
2023-06-19T10:18:25.766Z,32.66
2023-06-19T10:21:17.919Z,31.79
2023-06-19T10:24:09.787Z,33.37
2023-06-19T10:27:03.065Z,32.86
2023-06-19T10:30:10.142Z,33.35
2023-06-19T10:33:10.742Z,33.74
2023-06-19T10:35:56.180Z,34.05
2023-06-19T10:38:47.762Z,34.47
2023-06-19T10:41:39.779Z,33.39
2023-06-19T10:44:26.431Z,31.42
2023-06-19T10:47:17.757Z,32.43
2023-06-19T10:50:11.885Z,33.17
2023-06-19T10:52:56.964Z,32.89
2023-06-19T10:55:48.757Z,33.45
2023-06-19T10:58:33.723Z,32.76
2023-06-19T11:01:25.787Z,32.09
2023-06-19T11:04:18.832Z,32.00
2023-06-19T11:07:16.788Z,31.57
2023-06-19T11:10:10.788Z,33.66
2023-06-19T11:12:58.253Z,31.33
2023-06-19T11:15:49.816Z,30.39
2023-06-19T11:18:34.885Z,31.10
2023-06-19T11:21:26.774Z,29.67
2023-06-19T11:24:20.862Z,31.47
2023-06-19T11:27:06.392Z,31.92
2023-06-19T11:30:02.794Z,32.70
2023-06-19T11:32:49.287Z,32.23
2023-06-19T11:35:43.792Z,30.78
2023-06-19T11:38:28.859Z,30.66
2023-06-19T11:41:19.790Z,30.89
2023-06-19T11:44:06.814Z,31.06
2023-06-19T11:46:57.795Z,29.86
2023-06-19T11:49:43.135Z,29.41
2023-06-19T11:52:34.798Z,29.63
2023-06-19T11:55:20.008Z,29.46
2023-06-19T11:58:11.785Z,29.55
2023-06-19T12:01:03.821Z,29.72
2023-06-19T12:03:48.785Z,29.73
2023-06-19T12:06:47.833Z,29.66
2023-06-19T12:09:35.700Z,29.55
2023-06-19T12:12:42.851Z,29.76
2023-06-19T12:15:37.541Z,29.54
2023-06-19T12:18:28.805Z,29.23
2023-06-19T12:21:29.162Z,29.01
2023-06-19T12:24:24.839Z,29.23
2023-06-19T12:27:10.235Z,28.62
2023-06-19T12:30:01.814Z,29.58
2023-06-19T12:32:50.653Z,29.85
2023-06-19T12:35:42.813Z,29.84
2023-06-19T12:38:27.874Z,29.66
2023-06-19T12:41:18.814Z,29.17
2023-06-19T12:44:04.225Z,29.70
2023-06-19T12:46:55.809Z,29.44
2023-06-19T12:49:47.807Z,29.61
2023-06-19T12:52:38.823Z,29.43
2023-06-19T12:55:29.820Z,29.51
2023-06-19T12:58:20.833Z,29.70
2023-06-19T13:01:06.515Z,29.76
2023-06-19T13:03:57.927Z,29.54
2023-06-19T13:06:49.844Z,29.82
2023-06-19T13:09:41.029Z,29.99
2023-06-19T13:12:32.858Z,29.54
2023-06-19T13:15:18.247Z,29.32
2023-06-19T13:18:09.862Z,29.62
2023-06-19T13:20:54.898Z,29.21
2023-06-19T13:23:45.864Z,28.85
2023-06-19T13:26:30.980Z,28.72
2023-06-19T13:29:22.848Z,29.05
2023-06-19T13:32:08.177Z,29.32
2023-06-19T13:35:03.841Z,29.33
2023-06-19T13:37:48.885Z,28.91
2023-06-19T13:40:40.843Z,29.16
2023-06-19T13:43:25.817Z,29.32
2023-06-19T13:46:16.903Z,28.96
2023-06-19T13:49:07.816Z,29.01
2023-06-19T13:51:59.871Z,29.40
2023-06-19T13:54:44.626Z,28.72
2023-06-19T13:57:35.842Z,28.08
2023-06-19T14:00:27.848Z,28.34
2023-06-19T14:03:14.294Z,28.80
2023-06-19T14:06:05.844Z,28.87
2023-06-19T14:09:03.862Z,29.01
2023-06-19T14:11:49.100Z,29.03
2023-06-19T14:14:40.860Z,29.21
2023-06-19T14:17:25.834Z,29.25
2023-06-19T14:20:18.848Z,29.25
2023-06-19T14:23:03.736Z,29.21
2023-06-19T14:25:54.861Z,29.27
2023-06-19T14:28:40.289Z,29.22
2023-06-19T14:31:31.859Z,29.23
2023-06-19T14:34:16.754Z,29.10
2023-06-19T14:37:07.874Z,28.80
2023-06-19T14:39:52.783Z,28.89
2023-06-19T14:42:44.890Z,28.72
2023-06-19T14:45:29.801Z,28.87
2023-06-19T14:48:20.861Z,29.26
2023-06-19T14:51:11.894Z,29.35
2023-06-19T14:53:57.369Z,29.57
2023-06-19T14:56:48.880Z,29.22
2023-06-19T14:59:33.849Z,29.25
2023-06-19T15:02:24.915Z,28.99
2023-06-19T15:05:16.881Z,28.90
2023-06-19T15:08:10.252Z,28.97
2023-06-19T15:11:01.891Z,29.18
2023-06-19T15:13:53.877Z,28.91
2023-06-19T15:16:38.983Z,29.30
2023-06-19T15:19:31.868Z,29.57
2023-06-19T15:22:16.965Z,29.32
2023-06-19T15:25:07.887Z,29.29
2023-06-19T15:27:58.937Z,28.99
2023-06-19T15:30:43.807Z,29.20
2023-06-19T15:33:34.895Z,29.09
2023-06-19T15:36:25.903Z,28.82
2023-06-19T15:39:16.882Z,28.95
2023-06-19T15:42:01.731Z,29.12
2023-06-19T15:44:52.888Z,28.99
2023-06-19T15:47:45.063Z,28.96
2023-06-19T15:50:36.917Z,28.89
2023-06-19T15:53:21.785Z,28.77
2023-06-19T15:56:13.929Z,28.78
2023-06-19T15:58:58.754Z,28.88
2023-06-19T16:01:50.011Z,28.92
2023-06-19T16:04:35.139Z,28.93
2023-06-19T16:07:32.915Z,29.24
2023-06-19T16:10:18.378Z,29.39
2023-06-19T16:13:09.919Z,28.81
2023-06-19T16:15:54.859Z,28.86
2023-06-19T16:18:46.914Z,28.93
2023-06-19T16:21:32.214Z,28.99
2023-06-19T16:24:23.953Z,29.09
2023-06-19T16:27:09.318Z,28.97
2023-06-19T16:30:00.928Z,28.89
2023-06-19T16:32:45.903Z,28.81
2023-06-19T16:35:38.940Z,28.78
2023-06-19T16:38:24.062Z,28.79
2023-06-19T16:41:16.573Z,28.78
2023-06-19T16:44:08.932Z,28.64
2023-06-19T16:47:00.009Z,28.43
2023-06-19T16:49:51.956Z,28.54
2023-06-19T16:52:42.983Z,28.59
2023-06-19T16:55:27.903Z,28.19
2023-06-19T16:58:18.937Z,28.01
2023-06-19T17:01:04.076Z,27.87
2023-06-19T17:03:54.940Z,27.99
2023-06-19T17:06:52.968Z,28.11
2023-06-19T17:09:44.956Z,28.18
2023-06-19T17:12:35.988Z,28.27
2023-06-19T17:15:20.743Z,28.25
2023-06-19T17:18:14.028Z,28.07
2023-06-19T17:20:58.655Z,28.03
2023-06-19T17:23:49.946Z,27.77
2023-06-19T17:26:35.055Z,27.58
2023-06-19T17:29:25.945Z,27.54
2023-06-19T17:32:10.868Z,27.50
2023-06-19T17:35:01.933Z,27.42
2023-06-19T17:37:47.196Z,27.23
2023-06-19T17:40:38.963Z,27.07
2023-06-19T17:43:30.940Z,27.08
2023-06-19T17:46:15.824Z,27.12
2023-06-19T17:49:06.955Z,27.25
2023-06-19T17:51:57.964Z,27.09
2023-06-19T17:54:45.812Z,26.98
2023-06-19T17:57:36.971Z,26.92
2023-06-19T18:00:28.966Z,26.92
2023-06-19T18:03:13.802Z,26.88
2023-06-19T18:06:05.962Z,26.79
2023-06-19T18:08:57.004Z,26.78
2023-06-19T18:11:47.967Z,26.78
2023-06-19T18:14:39.959Z,26.70
2023-06-19T18:17:32.027Z,26.59
2023-06-19T18:20:24.212Z,26.49
2023-06-19T18:23:15.986Z,26.48
2023-06-19T18:26:01.266Z,26.44
2023-06-19T18:28:52.967Z,26.44
2023-06-19T18:31:44.983Z,26.38
2023-06-19T18:34:36.967Z,26.31
2023-06-19T18:37:21.816Z,26.25
2023-06-19T18:40:13.974Z,26.18
2023-06-19T18:43:05.992Z,26.08
2023-06-19T18:45:51.493Z,26.07
2023-06-19T18:48:42.956Z,26.05
2023-06-19T18:51:27.864Z,26.01
2023-06-19T18:54:18.990Z,26.05
2023-06-19T18:57:04.232Z,25.92
2023-06-19T18:59:55.985Z,25.84
2023-06-19T19:02:40.828Z,25.86
2023-06-19T19:05:32.995Z,25.79
2023-06-19T19:08:24.163Z,25.85
2023-06-19T19:11:15.988Z,25.76
2023-06-19T19:14:00.913Z,25.77
2023-06-19T19:16:52.036Z,25.71
2023-06-19T19:19:37.413Z,25.69
2023-06-19T19:22:29.008Z,25.62
2023-06-19T19:25:14.044Z,25.50
2023-06-19T19:28:05.981Z,25.38
2023-06-19T19:30:57.004Z,25.30
2023-06-19T19:33:42.434Z,25.31
2023-06-19T19:36:34.021Z,25.17
2023-06-19T19:39:18.832Z,25.11
2023-06-19T19:42:11.023Z,25.09
2023-06-19T19:44:55.974Z,25.04
2023-06-19T19:47:48.018Z,25.02
2023-06-19T19:50:34.012Z,24.96
2023-06-19T19:53:25.005Z,24.80
2023-06-19T19:56:17.026Z,24.76
2023-06-19T19:59:08.027Z,24.71
2023-06-19T20:02:00.148Z,24.71
2023-06-19T20:04:52.035Z,24.72
2023-06-19T20:07:50.023Z,24.74
2023-06-19T20:10:35.415Z,24.73
2023-06-19T20:13:27.005Z,24.71
2023-06-19T20:16:12.151Z,24.68
2023-06-19T20:19:04.017Z,24.63
2023-06-19T20:21:56.036Z,24.59
2023-06-19T20:24:41.128Z,24.46
2023-06-19T20:27:34.066Z,24.39
2023-06-19T20:30:18.804Z,24.69
2023-06-19T20:33:10.049Z,24.79
2023-06-19T20:35:55.152Z,24.64
2023-06-19T20:38:47.017Z,24.59
2023-06-19T20:41:39.023Z,24.43
2023-06-19T20:44:24.829Z,24.33
2023-06-19T20:47:16.098Z,24.33
2023-06-19T20:50:07.047Z,24.26
2023-06-19T20:52:58.059Z,24.28
2023-06-19T20:55:50.141Z,24.28
2023-06-19T20:58:42.032Z,24.32
2023-06-19T21:01:27.175Z,24.27
2023-06-19T21:04:19.031Z,24.28
2023-06-19T21:07:10.402Z,24.19
2023-06-19T21:10:02.048Z,24.20
2023-06-19T21:12:46.966Z,24.22
2023-06-19T21:15:38.035Z,24.14
2023-06-19T21:18:29.029Z,24.18
2023-06-19T21:21:14.278Z,24.18
2023-06-19T21:24:06.127Z,24.15
2023-06-19T21:26:51.326Z,24.08
2023-06-19T21:29:44.058Z,24.04
2023-06-19T21:32:29.286Z,24.05
2023-06-19T21:35:21.060Z,24.06
2023-06-19T21:38:06.147Z,24.07
2023-06-19T21:40:58.056Z,24.05
2023-06-19T21:43:43.012Z,23.99
2023-06-19T21:46:34.137Z,23.92
2023-06-19T21:49:19.135Z,23.95
2023-06-19T21:52:11.077Z,23.97
2023-06-19T21:54:56.119Z,23.99
2023-06-19T21:57:59.568Z,24.00
2023-06-19T22:00:45.136Z,23.88
2023-06-19T22:03:36.154Z,23.89
2023-06-19T22:06:28.148Z,23.89
2023-06-19T22:09:27.080Z,23.79
2023-06-19T22:12:12.091Z,23.77
2023-06-19T22:15:04.074Z,23.72
2023-06-19T22:17:49.307Z,23.61
2023-06-19T22:20:41.083Z,23.52
2023-06-19T22:23:34.084Z,23.45
2023-06-19T22:26:19.918Z,23.45
2023-06-19T22:29:14.107Z,23.44
2023-06-19T22:32:06.085Z,23.44
2023-06-19T22:34:58.088Z,23.43
2023-06-19T22:37:43.498Z,23.37
2023-06-19T22:40:35.076Z,23.41
2023-06-19T22:43:19.950Z,23.28
2023-06-19T22:46:11.145Z,23.18
2023-06-19T22:48:56.447Z,23.13
2023-06-19T22:51:48.089Z,23.18
2023-06-19T22:54:32.942Z,23.14
2023-06-19T22:57:24.094Z,23.08
2023-06-19T23:00:13.700Z,23.10
2023-06-19T23:03:12.182Z,23.08
2023-06-19T23:06:14.090Z,23.08
2023-06-19T23:09:05.083Z,23.10
2023-06-19T23:11:57.096Z,23.15
2023-06-19T23:14:41.868Z,23.17
2023-06-19T23:17:33.100Z,23.15
2023-06-19T23:20:18.458Z,23.02
2023-06-19T23:23:12.111Z,23.01
2023-06-19T23:26:08.098Z,23.06
2023-06-19T23:29:01.078Z,22.90
2023-06-19T23:31:52.106Z,22.80
2023-06-19T23:34:43.101Z,22.71
2023-06-19T23:37:28.064Z,22.61
2023-06-19T23:40:20.087Z,22.58
2023-06-19T23:43:11.125Z,22.57
2023-06-19T23:45:55.906Z,22.69
2023-06-19T23:48:48.123Z,22.76
2023-06-19T23:51:33.034Z,22.73
2023-06-19T23:54:24.099Z,22.78
2023-06-19T23:57:16.114Z,22.77
